sensor_id;sensor_type;location;lat;lon;timestamp;temperature;humidity
27795;DHT22;15176;50.844;4.412;2022-11-21T00:00:46;9.20;99.90
27795;DHT22;15176;50.844;4.412;2022-11-21T00:03:12;9.30;99.90
27795;DHT22;15176;50.844;4.412;2022-11-21T00:05:39;9.20;99.90
27795;DHT22;15176;50.844;4.412;2022-11-21T00:08:13;9.30;99.90
27795;DHT22;15176;50.844;4.412;2022-11-21T00:10:40;9.50;99.90
27795;DHT22;15176;50.844;4.412;2022-11-21T00:13:18;9.40;99.90
27795;DHT22;15176;50.844;4.412;2022-11-21T00:15:45;9.30;99.90
27795;DHT22;15176;50.844;4.412;2022-11-21T00:18:12;9.00;99.90
27795;DHT22;15176;50.844;4.412;2022-11-21T00:20:38;9.20;99.90
27795;DHT22;15176;50.844;4.412;2022-11-21T00:23:04;9.20;99.90
27795;DHT22;15176;50.844;4.412;2022-11-21T00:25:30;9.20;99.90
27795;DHT22;15176;50.844;4.412;2022-11-21T00:27:56;9.30;99.90
27795;DHT22;15176;50.844;4.412;2022-11-21T00:30:22;9.40;99.90
27795;DHT22;15176;50.844;4.412;2022-11-21T00:32:47;9.60;99.90
27795;DHT22;15176;50.844;4.412;2022-11-21T00:35:13;9.70;99.90
27795;DHT22;15176;50.844;4.412;2022-11-21T00:37:39;9.40;99.90
27795;DHT22;15176;50.844;4.412;2022-11-21T00:40:05;9.30;99.90
27795;DHT22;15176;50.844;4.412;2022-11-21T00:42:31;9.10;99.90
27795;DHT22;15176;50.844;4.412;2022-11-21T00:44:57;9.10;99.90
27795;DHT22;15176;50.844;4.412;2022-11-21T00:47:22;9.00;99.90
27795;DHT22;15176;50.844;4.412;2022-11-21T00:49:48;8.60;99.90
27795;DHT22;15176;50.844;4.412;2022-11-21T00:52:15;8.70;99.90
27795;DHT22;15176;50.844;4.412;2022-11-21T00:54:41;8.70;99.90
27795;DHT22;15176;50.844;4.412;2022-11-21T00:57:07;8.80;99.90
27795;DHT22;15176;50.844;4.412;2022-11-21T00:59:32;8.70;99.90
27795;DHT22;15176;50.844;4.412;2022-11-21T01:01:58;8.80;99.90
27795;DHT22;15176;50.844;4.412;2022-11-21T01:04:24;8.80;99.90
27795;DHT22;15176;50.844;4.412;2022-11-21T01:06:49;8.60;99.90
27795;DHT22;15176;50.844;4.412;2022-11-21T01:09:15;8.60;99.90
27795;DHT22;15176;50.844;4.412;2022-11-21T01:11:41;8.50;99.90
27795;DHT22;15176;50.844;4.412;2022-11-21T01:14:07;8.60;99.90
27795;DHT22;15176;50.844;4.412;2022-11-21T01:16:32;8.60;99.90
27795;DHT22;15176;50.844;4.412;2022-11-21T01:18:58;8.70;99.90
27795;DHT22;15176;50.844;4.412;2022-11-21T01:21:28;8.40;99.90
27795;DHT22;15176;50.844;4.412;2022-11-21T01:23:54;8.30;99.90
27795;DHT22;15176;50.844;4.412;2022-11-21T01:26:22;8.50;99.90
27795;DHT22;15176;50.844;4.412;2022-11-21T01:28:48;8.40;99.90
27795;DHT22;15176;50.844;4.412;2022-11-21T01:31:17;8.40;99.90
27795;DHT22;15176;50.844;4.412;2022-11-21T01:33:43;8.30;99.90
27795;DHT22;15176;50.844;4.412;2022-11-21T01:36:14;8.50;99.90
27795;DHT22;15176;50.844;4.412;2022-11-21T01:38:41;8.30;99.90
27795;DHT22;15176;50.844;4.412;2022-11-21T01:41:08;8.20;99.90
27795;DHT22;15176;50.844;4.412;2022-11-21T01:43:34;8.20;99.90
27795;DHT22;15176;50.844;4.412;2022-11-21T01:46:13;8.20;99.90
27795;DHT22;15176;50.844;4.412;2022-11-21T01:48:42;8.30;99.90
27795;DHT22;15176;50.844;4.412;2022-11-21T01:54:43;8.10;99.90
27795;DHT22;15176;50.844;4.412;2022-11-21T01:57:14;8.00;99.90
27795;DHT22;15176;50.844;4.412;2022-11-21T01:59:42;8.20;99.90
27795;DHT22;15176;50.844;4.412;2022-11-21T02:02:11;8.20;99.90
27795;DHT22;15176;50.844;4.412;2022-11-21T02:04:41;8.20;99.90
27795;DHT22;15176;50.844;4.412;2022-11-21T02:07:08;8.30;99.90
27795;DHT22;15176;50.844;4.412;2022-11-21T02:09:39;8.50;99.90
27795;DHT22;15176;50.844;4.412;2022-11-21T02:12:12;8.40;99.90
27795;DHT22;15176;50.844;4.412;2022-11-21T02:14:41;8.40;99.90
27795;DHT22;15176;50.844;4.412;2022-11-21T02:17:09;8.50;99.90
27795;DHT22;15176;50.844;4.412;2022-11-21T02:19:46;8.70;99.90
27795;DHT22;15176;50.844;4.412;2022-11-21T02:25:07;8.70;99.90
27795;DHT22;15176;50.844;4.412;2022-11-21T02:27:34;8.90;99.90
27795;DHT22;15176;50.844;4.412;2022-11-21T02:30:05;8.80;99.90
27795;DHT22;15176;50.844;4.412;2022-11-21T02:32:35;8.70;99.90
27795;DHT22;15176;50.844;4.412;2022-11-21T02:35:01;8.60;99.90
27795;DHT22;15176;50.844;4.412;2022-11-21T02:37:27;8.70;99.90
27795;DHT22;15176;50.844;4.412;2022-11-21T02:39:54;8.70;99.90
27795;DHT22;15176;50.844;4.412;2022-11-21T02:47:50;8.70;99.90
27795;DHT22;15176;50.844;4.412;2022-11-21T02:50:32;8.80;99.90
27795;DHT22;15176;50.844;4.412;2022-11-21T02:52:58;8.90;99.90
27795;DHT22;15176;50.844;4.412;2022-11-21T02:55:24;8.80;99.90
27795;DHT22;15176;50.844;4.412;2022-11-21T02:57:50;8.70;99.90
27795;DHT22;15176;50.844;4.412;2022-11-21T03:00:17;8.70;99.90
27795;DHT22;15176;50.844;4.412;2022-11-21T03:02:43;8.80;99.90
27795;DHT22;15176;50.844;4.412;2022-11-21T03:05:11;8.80;99.90
27795;DHT22;15176;50.844;4.412;2022-11-21T03:07:37;8.80;99.90
27795;DHT22;15176;50.844;4.412;2022-11-21T03:10:03;8.80;99.90
27795;DHT22;15176;50.844;4.412;2022-11-21T03:12:29;8.80;99.90
27795;DHT22;15176;50.844;4.412;2022-11-21T03:14:56;8.80;99.90
27795;DHT22;15176;50.844;4.412;2022-11-21T03:17:21;8.50;99.90
27795;DHT22;15176;50.844;4.412;2022-11-21T03:19:47;8.40;99.90
27795;DHT22;15176;50.844;4.412;2022-11-21T03:22:14;8.50;99.90
27795;DHT22;15176;50.844;4.412;2022-11-21T03:24:40;8.30;99.90
27795;DHT22;15176;50.844;4.412;2022-11-21T03:27:06;8.30;99.90
27795;DHT22;15176;50.844;4.412;2022-11-21T03:29:32;8.40;99.90
27795;DHT22;15176;50.844;4.412;2022-11-21T03:31:58;8.20;99.90
27795;DHT22;15176;50.844;4.412;2022-11-21T03:34:24;8.10;99.90
27795;DHT22;15176;50.844;4.412;2022-11-21T03:36:50;7.90;99.90
27795;DHT22;15176;50.844;4.412;2022-11-21T03:39:16;7.90;99.90
27795;DHT22;15176;50.844;4.412;2022-11-21T03:41:42;8.00;99.90
27795;DHT22;15176;50.844;4.412;2022-11-21T03:44:09;7.90;99.90
27795;DHT22;15176;50.844;4.412;2022-11-21T03:46:38;7.80;99.90
27795;DHT22;15176;50.844;4.412;2022-11-21T03:49:04;7.90;99.90
27795;DHT22;15176;50.844;4.412;2022-11-21T03:51:30;7.70;99.90
27795;DHT22;15176;50.844;4.412;2022-11-21T03:53:56;7.60;99.90
27795;DHT22;15176;50.844;4.412;2022-11-21T03:56:21;7.80;99.90
27795;DHT22;15176;50.844;4.412;2022-11-21T03:58:47;7.70;99.90
27795;DHT22;15176;50.844;4.412;2022-11-21T04:01:13;7.70;99.90
27795;DHT22;15176;50.844;4.412;2022-11-21T04:03:41;8.00;99.90
27795;DHT22;15176;50.844;4.412;2022-11-21T04:06:08;8.00;99.90
27795;DHT22;15176;50.844;4.412;2022-11-21T04:08:34;7.90;99.90
27795;DHT22;15176;50.844;4.412;2022-11-21T04:10:59;7.80;99.90
27795;DHT22;15176;50.844;4.412;2022-11-21T04:13:25;7.90;99.90
27795;DHT22;15176;50.844;4.412;2022-11-21T04:15:54;7.60;99.90
27795;DHT22;15176;50.844;4.412;2022-11-21T04:18:20;7.80;99.90
27795;DHT22;15176;50.844;4.412;2022-11-21T04:20:46;7.60;99.90
27795;DHT22;15176;50.844;4.412;2022-11-21T04:23:11;7.70;99.90
27795;DHT22;15176;50.844;4.412;2022-11-21T04:25:38;7.90;99.90
27795;DHT22;15176;50.844;4.412;2022-11-21T04:28:04;8.00;99.90
27795;DHT22;15176;50.844;4.412;2022-11-21T04:30:33;7.90;99.90
27795;DHT22;15176;50.844;4.412;2022-11-21T04:32:59;7.80;99.90
27795;DHT22;15176;50.844;4.412;2022-11-21T04:35:25;7.90;99.90
27795;DHT22;15176;50.844;4.412;2022-11-21T04:37:52;8.10;99.90
27795;DHT22;15176;50.844;4.412;2022-11-21T04:40:18;8.10;99.90
27795;DHT22;15176;50.844;4.412;2022-11-21T04:42:44;8.10;99.90
27795;DHT22;15176;50.844;4.412;2022-11-21T04:45:11;8.10;99.90
27795;DHT22;15176;50.844;4.412;2022-11-21T04:47:39;8.10;99.90
27795;DHT22;15176;50.844;4.412;2022-11-21T04:50:05;8.00;99.90
27795;DHT22;15176;50.844;4.412;2022-11-21T04:52:31;7.80;99.90
27795;DHT22;15176;50.844;4.412;2022-11-21T04:54:57;7.70;99.90
27795;DHT22;15176;50.844;4.412;2022-11-21T04:57:23;7.80;99.90
27795;DHT22;15176;50.844;4.412;2022-11-21T04:59:49;7.70;99.90
27795;DHT22;15176;50.844;4.412;2022-11-21T05:02:15;7.80;99.90
27795;DHT22;15176;50.844;4.412;2022-11-21T05:04:41;7.90;99.90
27795;DHT22;15176;50.844;4.412;2022-11-21T05:07:06;8.00;99.90
27795;DHT22;15176;50.844;4.412;2022-11-21T05:09:32;8.00;99.90
27795;DHT22;15176;50.844;4.412;2022-11-21T05:11:58;8.10;99.90
27795;DHT22;15176;50.844;4.412;2022-11-21T05:14:42;7.90;99.90
27795;DHT22;15176;50.844;4.412;2022-11-21T05:17:08;7.80;99.90
27795;DHT22;15176;50.844;4.412;2022-11-21T05:19:33;8.00;99.90
27795;DHT22;15176;50.844;4.412;2022-11-21T05:21:59;7.90;99.90
27795;DHT22;15176;50.844;4.412;2022-11-21T05:24:25;8.00;99.90
27795;DHT22;15176;50.844;4.412;2022-11-21T05:26:50;8.10;99.90
27795;DHT22;15176;50.844;4.412;2022-11-21T05:29:16;8.00;99.90
27795;DHT22;15176;50.844;4.412;2022-11-21T05:31:42;7.80;99.90
27795;DHT22;15176;50.844;4.412;2022-11-21T05:34:08;7.90;99.90
27795;DHT22;15176;50.844;4.412;2022-11-21T05:36:33;8.00;99.90
27795;DHT22;15176;50.844;4.412;2022-11-21T05:38:59;7.90;99.90
27795;DHT22;15176;50.844;4.412;2022-11-21T05:41:25;8.00;99.90
27795;DHT22;15176;50.844;4.412;2022-11-21T05:43:50;8.10;99.90
27795;DHT22;15176;50.844;4.412;2022-11-21T05:46:21;8.30;99.90
27795;DHT22;15176;50.844;4.412;2022-11-21T05:48:48;8.40;99.90
27795;DHT22;15176;50.844;4.412;2022-11-21T05:51:18;8.40;99.90
27795;DHT22;15176;50.844;4.412;2022-11-21T05:53:44;8.70;99.90
27795;DHT22;15176;50.844;4.412;2022-11-21T05:56:12;8.70;99.90
27795;DHT22;15176;50.844;4.412;2022-11-21T05:58:38;8.80;99.90
27795;DHT22;15176;50.844;4.412;2022-11-21T06:01:05;8.90;99.90
27795;DHT22;15176;50.844;4.412;2022-11-21T06:03:34;9.10;99.90
27795;DHT22;15176;50.844;4.412;2022-11-21T06:06:10;9.30;99.90
27795;DHT22;15176;50.844;4.412;2022-11-21T06:08:42;9.00;99.90
27795;DHT22;15176;50.844;4.412;2022-11-21T06:11:09;9.00;99.90
27795;DHT22;15176;50.844;4.412;2022-11-21T06:13:36;9.00;99.90
27795;DHT22;15176;50.844;4.412;2022-11-21T06:16:11;9.40;99.90
27795;DHT22;15176;50.844;4.412;2022-11-21T06:18:40;9.60;99.90
27795;DHT22;15176;50.844;4.412;2022-11-21T06:21:08;9.80;99.90
27795;DHT22;15176;50.844;4.412;2022-11-21T06:23:35;10.10;99.90
27795;DHT22;15176;50.844;4.412;2022-11-21T06:26:03;10.20;99.90
27795;DHT22;15176;50.844;4.412;2022-11-21T06:28:30;10.30;99.90
27795;DHT22;15176;50.844;4.412;2022-11-21T06:31:22;10.10;99.90
27795;DHT22;15176;50.844;4.412;2022-11-21T06:33:53;9.90;99.90
27795;DHT22;15176;50.844;4.412;2022-11-21T06:36:19;9.30;99.90
27795;DHT22;15176;50.844;4.412;2022-11-21T06:38:45;9.20;99.90
27795;DHT22;15176;50.844;4.412;2022-11-21T06:41:24;9.80;99.90
27795;DHT22;15176;50.844;4.412;2022-11-21T06:43:50;10.30;99.90
27795;DHT22;15176;50.844;4.412;2022-11-21T06:46:16;10.70;99.90
27795;DHT22;15176;50.844;4.412;2022-11-21T06:48:43;11.10;99.90
27795;DHT22;15176;50.844;4.412;2022-11-21T06:51:18;11.30;99.90
27795;DHT22;15176;50.844;4.412;2022-11-21T06:53:45;11.40;99.90
27795;DHT22;15176;50.844;4.412;2022-11-21T06:56:11;11.50;99.90
27795;DHT22;15176;50.844;4.412;2022-11-21T06:58:37;11.60;99.90
27795;DHT22;15176;50.844;4.412;2022-11-21T07:01:04;11.70;99.90
27795;DHT22;15176;50.844;4.412;2022-11-21T07:03:30;11.80;99.90
27795;DHT22;15176;50.844;4.412;2022-11-21T07:05:58;12.00;99.90
27795;DHT22;15176;50.844;4.412;2022-11-21T07:08:29;12.00;99.90
27795;DHT22;15176;50.844;4.412;2022-11-21T07:10:59;12.10;99.90
27795;DHT22;15176;50.844;4.412;2022-11-21T07:13:25;12.40;99.90
27795;DHT22;15176;50.844;4.412;2022-11-21T07:15:54;12.50;99.90
27795;DHT22;15176;50.844;4.412;2022-11-21T07:18:21;12.40;99.90
27795;DHT22;15176;50.844;4.412;2022-11-21T07:20:47;12.80;99.90
27795;DHT22;15176;50.844;4.412;2022-11-21T07:23:14;12.90;99.90
27795;DHT22;15176;50.844;4.412;2022-11-21T07:25:42;12.90;99.90
27795;DHT22;15176;50.844;4.412;2022-11-21T07:28:09;13.00;99.90
27795;DHT22;15176;50.844;4.412;2022-11-21T07:30:36;12.20;99.90
27795;DHT22;15176;50.844;4.412;2022-11-21T07:33:04;12.00;99.90
27795;DHT22;15176;50.844;4.412;2022-11-21T07:35:32;12.00;99.90
27795;DHT22;15176;50.844;4.412;2022-11-21T07:38:04;12.10;99.90
27795;DHT22;15176;50.844;4.412;2022-11-21T07:40:32;12.70;99.90
27795;DHT22;15176;50.844;4.412;2022-11-21T07:43:04;12.90;99.90
27795;DHT22;15176;50.844;4.412;2022-11-21T07:45:32;13.40;99.90
27795;DHT22;15176;50.844;4.412;2022-11-21T07:48:00;13.10;99.90
27795;DHT22;15176;50.844;4.412;2022-11-21T07:50:29;13.20;99.90
27795;DHT22;15176;50.844;4.412;2022-11-21T07:53:04;13.50;99.90
27795;DHT22;15176;50.844;4.412;2022-11-21T07:55:31;13.20;99.90
27795;DHT22;15176;50.844;4.412;2022-11-21T07:58:14;13.10;99.90
27795;DHT22;15176;50.844;4.412;2022-11-21T08:00:47;13.20;99.90
27795;DHT22;15176;50.844;4.412;2022-11-21T08:03:13;13.70;99.90
27795;DHT22;15176;50.844;4.412;2022-11-21T08:05:41;13.90;99.90
27795;DHT22;15176;50.844;4.412;2022-11-21T08:08:09;13.90;99.90
27795;DHT22;15176;50.844;4.412;2022-11-21T08:10:43;14.30;99.90
27795;DHT22;15176;50.844;4.412;2022-11-21T08:13:09;14.90;99.90
27795;DHT22;15176;50.844;4.412;2022-11-21T08:15:36;15.20;99.90
27795;DHT22;15176;50.844;4.412;2022-11-21T14:11:42;13.80;99.90
27795;DHT22;15176;50.844;4.412;2022-11-21T14:14:44;14.10;99.90
27795;DHT22;15176;50.844;4.412;2022-11-21T14:17:44;13.80;99.90
27795;DHT22;15176;50.844;4.412;2022-11-21T14:23:28;14.40;99.90
27795;DHT22;15176;50.844;4.412;2022-11-21T14:26:16;13.90;99.90
27795;DHT22;15176;50.844;4.412;2022-11-21T14:28:45;13.40;99.90
27795;DHT22;15176;50.844;4.412;2022-11-21T14:31:12;13.40;99.90
27795;DHT22;15176;50.844;4.412;2022-11-21T14:33:39;13.80;99.90
27795;DHT22;15176;50.844;4.412;2022-11-21T14:36:13;13.70;99.90
27795;DHT22;15176;50.844;4.412;2022-11-21T14:38:46;14.20;99.90
27795;DHT22;15176;50.844;4.412;2022-11-21T14:41:27;14.20;99.90
27795;DHT22;15176;50.844;4.412;2022-11-21T14:46:23;13.60;99.90
27795;DHT22;15176;50.844;4.412;2022-11-21T14:48:50;13.50;99.90
27795;DHT22;15176;50.844;4.412;2022-11-21T14:51:23;13.80;99.90
27795;DHT22;15176;50.844;4.412;2022-11-21T14:53:51;14.30;99.90
27795;DHT22;15176;50.844;4.412;2022-11-21T14:56:31;14.40;99.90
27795;DHT22;15176;50.844;4.412;2022-11-21T14:59:01;14.20;99.90
27795;DHT22;15176;50.844;4.412;2022-11-21T15:01:32;13.80;99.90
27795;DHT22;15176;50.844;4.412;2022-11-21T15:03:59;13.40;99.90
27795;DHT22;15176;50.844;4.412;2022-11-21T15:06:28;13.90;99.90
27795;DHT22;15176;50.844;4.412;2022-11-21T15:08:58;14.00;99.90
27795;DHT22;15176;50.844;4.412;2022-11-21T15:11:41;13.90;99.90
27795;DHT22;15176;50.844;4.412;2022-11-21T15:14:35;13.80;99.90
27795;DHT22;15176;50.844;4.412;2022-11-21T15:17:07;14.00;99.90
27795;DHT22;15176;50.844;4.412;2022-11-21T15:19:35;14.30;99.90
27795;DHT22;15176;50.844;4.412;2022-11-21T15:22:02;14.70;99.90
27795;DHT22;15176;50.844;4.412;2022-11-21T15:24:32;14.10;99.90
27795;DHT22;15176;50.844;4.412;2022-11-21T15:43:33;14.80;99.90
27795;DHT22;15176;50.844;4.412;2022-11-21T15:46:00;15.10;99.90
27795;DHT22;15176;50.844;4.412;2022-11-21T15:48:28;14.70;99.90
27795;DHT22;15176;50.844;4.412;2022-11-21T15:50:55;14.60;99.90
27795;DHT22;15176;50.844;4.412;2022-11-21T15:53:21;14.70;99.90
27795;DHT22;15176;50.844;4.412;2022-11-21T15:55:47;15.00;99.90
27795;DHT22;15176;50.844;4.412;2022-11-21T15:58:13;14.70;99.90
27795;DHT22;15176;50.844;4.412;2022-11-21T16:00:38;15.10;99.90
27795;DHT22;15176;50.844;4.412;2022-11-21T16:03:04;15.40;99.90
27795;DHT22;15176;50.844;4.412;2022-11-21T16:05:30;15.20;99.90
27795;DHT22;15176;50.844;4.412;2022-11-21T16:07:55;15.50;99.90
27795;DHT22;15176;50.844;4.412;2022-11-21T16:10:21;15.50;99.90
27795;DHT22;15176;50.844;4.412;2022-11-21T16:12:48;15.80;99.90
27795;DHT22;15176;50.844;4.412;2022-11-21T16:15:14;15.50;99.90
27795;DHT22;15176;50.844;4.412;2022-11-21T16:17:40;15.50;99.90
27795;DHT22;15176;50.844;4.412;2022-11-21T16:20:07;15.40;99.90
27795;DHT22;15176;50.844;4.412;2022-11-21T16:22:37;15.60;99.90
27795;DHT22;15176;50.844;4.412;2022-11-21T16:25:06;15.90;99.90
27795;DHT22;15176;50.844;4.412;2022-11-21T16:27:32;15.40;99.90
27795;DHT22;15176;50.844;4.412;2022-11-21T16:30:00;15.60;99.90
27795;DHT22;15176;50.844;4.412;2022-11-21T16:32:28;15.80;99.90
27795;DHT22;15176;50.844;4.412;2022-11-21T16:34:56;16.00;99.90
27795;DHT22;15176;50.844;4.412;2022-11-21T16:37:23;16.30;99.90
27795;DHT22;15176;50.844;4.412;2022-11-21T16:39:49;16.10;99.90
27795;DHT22;15176;50.844;4.412;2022-11-21T16:42:17;15.10;99.90
27795;DHT22;15176;50.844;4.412;2022-11-21T16:44:44;14.50;99.90
27795;DHT22;15176;50.844;4.412;2022-11-21T16:47:10;14.30;99.90
27795;DHT22;15176;50.844;4.412;2022-11-21T16:49:37;14.50;99.90
27795;DHT22;15176;50.844;4.412;2022-11-21T16:52:09;15.10;99.90
27795;DHT22;15176;50.844;4.412;2022-11-21T16:54:35;14.90;99.90
27795;DHT22;15176;50.844;4.412;2022-11-21T16:57:00;15.10;99.90
27795;DHT22;15176;50.844;4.412;2022-11-21T16:59:28;14.30;99.90
27795;DHT22;15176;50.844;4.412;2022-11-21T17:01:53;14.70;99.90
27795;DHT22;15176;50.844;4.412;2022-11-21T17:04:19;15.10;99.90
27795;DHT22;15176;50.844;4.412;2022-11-21T17:06:46;15.40;99.90
27795;DHT22;15176;50.844;4.412;2022-11-21T17:09:14;15.50;99.90
27795;DHT22;15176;50.844;4.412;2022-11-21T17:11:40;15.50;99.90
27795;DHT22;15176;50.844;4.412;2022-11-21T17:14:06;16.00;99.90
27795;DHT22;15176;50.844;4.412;2022-11-21T17:16:33;16.10;99.90
27795;DHT22;15176;50.844;4.412;2022-11-21T17:19:01;16.40;99.90
27795;DHT22;15176;50.844;4.412;2022-11-21T17:21:31;16.40;99.90
27795;DHT22;15176;50.844;4.412;2022-11-21T17:23:57;16.50;99.90
27795;DHT22;15176;50.844;4.412;2022-11-21T17:35:52;15.50;99.90
27795;DHT22;15176;50.844;4.412;2022-11-21T17:38:18;15.70;99.90
27795;DHT22;15176;50.844;4.412;2022-11-21T17:40:44;15.60;99.90
27795;DHT22;15176;50.844;4.412;2022-11-21T17:43:10;15.70;99.90
27795;DHT22;15176;50.844;4.412;2022-11-21T17:45:35;15.80;99.90
27795;DHT22;15176;50.844;4.412;2022-11-21T17:48:01;15.50;99.90
27795;DHT22;15176;50.844;4.412;2022-11-21T17:50:27;15.80;99.90
27795;DHT22;15176;50.844;4.412;2022-11-21T17:52:52;15.90;99.90
27795;DHT22;15176;50.844;4.412;2022-11-21T17:55:18;15.70;99.90
27795;DHT22;15176;50.844;4.412;2022-11-21T17:57:45;15.60;99.90
27795;DHT22;15176;50.844;4.412;2022-11-21T18:00:18;15.40;99.90
27795;DHT22;15176;50.844;4.412;2022-11-21T18:02:44;14.20;99.90
27795;DHT22;15176;50.844;4.412;2022-11-21T18:05:10;14.70;99.90
27795;DHT22;15176;50.844;4.412;2022-11-21T18:07:36;14.00;99.90
27795;DHT22;15176;50.844;4.412;2022-11-21T18:10:02;14.50;99.90
27795;DHT22;15176;50.844;4.412;2022-11-21T18:12:28;14.40;99.90
27795;DHT22;15176;50.844;4.412;2022-11-21T18:14:54;14.40;99.90
27795;DHT22;15176;50.844;4.412;2022-11-21T18:17:20;14.70;99.90
27795;DHT22;15176;50.844;4.412;2022-11-21T18:19:45;15.00;99.90
27795;DHT22;15176;50.844;4.412;2022-11-21T18:22:11;14.10;99.90
27795;DHT22;15176;50.844;4.412;2022-11-21T18:24:37;14.20;99.90
27795;DHT22;15176;50.844;4.412;2022-11-21T18:27:02;14.50;99.90
27795;DHT22;15176;50.844;4.412;2022-11-21T18:29:32;14.10;99.90
27795;DHT22;15176;50.844;4.412;2022-11-21T18:32:00;14.20;99.90
27795;DHT22;15176;50.844;4.412;2022-11-21T18:34:26;14.80;99.90
27795;DHT22;15176;50.844;4.412;2022-11-21T18:36:53;15.10;99.90
27795;DHT22;15176;50.844;4.412;2022-11-21T18:39:19;15.40;99.90
27795;DHT22;15176;50.844;4.412;2022-11-21T18:41:45;15.50;99.90
27795;DHT22;15176;50.844;4.412;2022-11-21T18:44:11;15.30;99.90
27795;DHT22;15176;50.844;4.412;2022-11-21T18:46:38;15.70;99.90
27795;DHT22;15176;50.844;4.412;2022-11-21T18:49:05;15.80;99.90
27795;DHT22;15176;50.844;4.412;2022-11-21T18:51:31;15.30;99.90
27795;DHT22;15176;50.844;4.412;2022-11-21T18:53:59;15.30;99.90
27795;DHT22;15176;50.844;4.412;2022-11-21T18:56:25;15.80;99.90
27795;DHT22;15176;50.844;4.412;2022-11-21T18:58:52;15.40;99.90
27795;DHT22;15176;50.844;4.412;2022-11-21T19:01:23;15.30;99.90
27795;DHT22;15176;50.844;4.412;2022-11-21T19:03:51;15.10;99.90
27795;DHT22;15176;50.844;4.412;2022-11-21T19:06:18;14.90;99.90
27795;DHT22;15176;50.844;4.412;2022-11-21T19:08:48;15.10;99.90
27795;DHT22;15176;50.844;4.412;2022-11-21T19:11:15;15.20;99.90
27795;DHT22;15176;50.844;4.412;2022-11-21T19:13:42;15.00;99.90
27795;DHT22;15176;50.844;4.412;2022-11-21T19:16:11;14.90;99.90
27795;DHT22;15176;50.844;4.412;2022-11-21T19:18:38;14.20;99.90
27795;DHT22;15176;50.844;4.412;2022-11-21T19:21:07;14.30;99.90
27795;DHT22;15176;50.844;4.412;2022-11-21T19:23:39;14.50;99.90
27795;DHT22;15176;50.844;4.412;2022-11-21T19:26:07;14.40;99.90
27795;DHT22;15176;50.844;4.412;2022-11-21T19:28:34;14.30;99.90
27795;DHT22;15176;50.844;4.412;2022-11-21T19:31:01;14.70;99.90
27795;DHT22;15176;50.844;4.412;2022-11-21T19:33:29;15.00;99.90
27795;DHT22;15176;50.844;4.412;2022-11-21T19:36:06;15.00;99.90
27795;DHT22;15176;50.844;4.412;2022-11-21T19:38:33;14.80;99.90
27795;DHT22;15176;50.844;4.412;2022-11-21T19:41:03;14.50;99.90
27795;DHT22;15176;50.844;4.412;2022-11-21T19:43:42;14.60;99.90
27795;DHT22;15176;50.844;4.412;2022-11-21T19:46:13;14.70;99.90
27795;DHT22;15176;50.844;4.412;2022-11-21T19:48:39;14.60;99.90
27795;DHT22;15176;50.844;4.412;2022-11-21T19:51:05;14.40;99.90
27795;DHT22;15176;50.844;4.412;2022-11-21T19:53:34;12.90;99.90
27795;DHT22;15176;50.844;4.412;2022-11-21T19:56:18;12.50;99.90
27795;DHT22;15176;50.844;4.412;2022-11-21T19:58:45;13.00;99.90
27795;DHT22;15176;50.844;4.412;2022-11-21T20:01:19;12.90;99.90
27795;DHT22;15176;50.844;4.412;2022-11-21T20:03:48;13.00;99.90
27795;DHT22;15176;50.844;4.412;2022-11-21T20:06:17;13.40;99.90
27795;DHT22;15176;50.844;4.412;2022-11-21T20:08:43;14.00;99.90
27795;DHT22;15176;50.844;4.412;2022-11-21T20:11:12;14.00;99.90
27795;DHT22;15176;50.844;4.412;2022-11-21T20:13:41;13.80;99.90
27795;DHT22;15176;50.844;4.412;2022-11-21T20:16:14;13.70;99.90
27795;DHT22;15176;50.844;4.412;2022-11-21T20:18:41;13.50;99.90
27795;DHT22;15176;50.844;4.412;2022-11-21T20:21:10;12.80;99.90
27795;DHT22;15176;50.844;4.412;2022-11-21T20:23:37;13.10;99.90
27795;DHT22;15176;50.844;4.412;2022-11-21T20:26:04;13.00;99.90
27795;DHT22;15176;50.844;4.412;2022-11-21T20:28:32;13.00;99.90
27795;DHT22;15176;50.844;4.412;2022-11-21T20:31:03;12.70;99.90
27795;DHT22;15176;50.844;4.412;2022-11-21T20:33:33;11.90;99.90
27795;DHT22;15176;50.844;4.412;2022-11-21T20:36:06;11.80;99.90
27795;DHT22;15176;50.844;4.412;2022-11-21T20:38:32;11.90;99.90
27795;DHT22;15176;50.844;4.412;2022-11-21T20:41:02;12.00;99.90
27795;DHT22;15176;50.844;4.412;2022-11-21T20:43:28;11.80;99.90
27795;DHT22;15176;50.844;4.412;2022-11-21T20:45:54;11.20;99.90
27795;DHT22;15176;50.844;4.412;2022-11-21T20:48:20;11.40;99.90
27795;DHT22;15176;50.844;4.412;2022-11-21T20:50:52;11.30;99.90
27795;DHT22;15176;50.844;4.412;2022-11-21T20:53:27;11.60;99.90
27795;DHT22;15176;50.844;4.412;2022-11-21T20:56:05;11.30;99.90
27795;DHT22;15176;50.844;4.412;2022-11-21T20:58:33;11.10;99.90
27795;DHT22;15176;50.844;4.412;2022-11-21T21:01:00;11.30;99.90
27795;DHT22;15176;50.844;4.412;2022-11-21T21:03:27;11.20;99.90
27795;DHT22;15176;50.844;4.412;2022-11-21T21:06:01;11.60;99.90
27795;DHT22;15176;50.844;4.412;2022-11-21T21:08:27;11.60;99.90
27795;DHT22;15176;50.844;4.412;2022-11-21T21:13:30;10.70;99.90
27795;DHT22;15176;50.844;4.412;2022-11-21T21:16:04;10.60;99.90
27795;DHT22;15176;50.844;4.412;2022-11-21T21:18:34;10.50;99.90
27795;DHT22;15176;50.844;4.412;2022-11-21T21:21:05;10.70;99.90
27795;DHT22;15176;50.844;4.412;2022-11-21T21:23:31;11.20;99.90
27795;DHT22;15176;50.844;4.412;2022-11-21T21:26:12;11.60;99.90
27795;DHT22;15176;50.844;4.412;2022-11-21T21:28:39;12.00;99.90
27795;DHT22;15176;50.844;4.412;2022-11-21T21:31:23;12.00;99.90
27795;DHT22;15176;50.844;4.412;2022-11-21T21:33:49;12.00;99.90
27795;DHT22;15176;50.844;4.412;2022-11-21T21:36:20;12.30;99.90
27795;DHT22;15176;50.844;4.412;2022-11-21T21:38:50;12.60;99.90
27795;DHT22;15176;50.844;4.412;2022-11-21T21:41:15;12.80;99.90
27795;DHT22;15176;50.844;4.412;2022-11-21T21:43:41;13.10;99.90
27795;DHT22;15176;50.844;4.412;2022-11-21T21:46:11;12.90;99.90
27795;DHT22;15176;50.844;4.412;2022-11-21T21:48:38;12.70;99.90
27795;DHT22;15176;50.844;4.412;2022-11-21T21:51:21;12.90;99.90
27795;DHT22;15176;50.844;4.412;2022-11-21T21:53:48;12.80;99.90
27795;DHT22;15176;50.844;4.412;2022-11-21T21:56:16;12.50;99.90
27795;DHT22;15176;50.844;4.412;2022-11-21T21:58:43;12.30;99.90
27795;DHT22;15176;50.844;4.412;2022-11-21T22:01:12;12.20;99.90
27795;DHT22;15176;50.844;4.412;2022-11-21T22:03:39;12.20;99.90
27795;DHT22;15176;50.844;4.412;2022-11-21T22:06:07;11.80;99.90
27795;DHT22;15176;50.844;4.412;2022-11-21T22:08:34;12.10;99.90
27795;DHT22;15176;50.844;4.412;2022-11-21T22:11:20;12.60;99.90
27795;DHT22;15176;50.844;4.412;2022-11-21T22:13:51;12.80;99.90
27795;DHT22;15176;50.844;4.412;2022-11-21T22:16:17;13.10;99.90
27795;DHT22;15176;50.844;4.412;2022-11-21T22:18:42;13.10;99.90
27795;DHT22;15176;50.844;4.412;2022-11-21T22:21:13;12.90;99.90
27795;DHT22;15176;50.844;4.412;2022-11-21T22:23:39;13.30;99.90